George Bush Intercontinental Houston Airport
KIAH : now visible

Airfield :











YOU CAN JOIN US ON...

 
LOGIN :

Register | Disclaimer

   EN    FR    IT 

 









Legend :    VFR   Marginal VFR   IFR   Intensive IFR   Very Intensive IFR
Visi :
Ceiling :
>= 8 km
>= 3000ft
5 to 8 km
1000 to 3000 ft
1500m to 5 km
500 to 1000 ft
800 to 1500m
200 to 500 ft
< 800m
< 200 ft
Symbols :   Thunderstorms  Fog  Heavy snow  Heavy precipitations  Wind > 20 kt






- Airport Elevation : 97 ft
- IATA code : IAH


KIAH - George Bush Intercontinental Houston

CURRENT METAR :
  • 212253Z 36016G23KT 10SM FEW048 FEW250 21/09 A3016 RMK AO2 SLP212 T02110094 $

EXPIRED METARs :
  • 212153Z 03017KT 10SM FEW048 22/09 A3015 RMK AO2 PK WND 01026/2055 SLP211 T02170094 $
  • 212053Z 01017G26KT 10SM FEW044 22/10 A3017 RMK AO2 PK WND 35026/2005 SLP217 T02170100 58019 $
  • 211953Z 36018G25KT 10SM SCT041 21/11 A3020 RMK AO2 PK WND 36029/1929 SLP225 T02060106 /
  • 211853Z 36017G22KT 10SM SCT035 21/11 A3021 RMK AO2 SLP230 T02060111 $

TAF KIAH
Valid from the 22 at 00:00 until the 23 at 06:00 UTC


212321Z 2200/2306 01016KT P6SM FEW045 FEW240
FM220100 02005KT P6SM FEW250
FM221500 09008KT P6SM SCT250
FM222200 13008KT P6SM FEW250
FM230200 16005KT P6SM FEW250
KZHU FIR / North America



MET'MAP, your aeronautical weather chart ! - Copyright ORBIFLY December 2007 - Disclaimer

ORBIFLY MET'MAP TEAM :

Programming & Development : Alexandra Zaïnal
Original concept : Baudouin d'Aumeries
Technical & hardware support : Manuel Goepfert
Assistance : Marc-Olivier Méhu




SOURCES & CREDITS :

   NOAA       Earth
Advisory